KELD/ELD METAR and TAF weather

Enter ICAO airport designator
Station Type Date Time Source
KELD METAR 2020/07/15 04:53 UTC NOAA

KELD 150453Z AUTO 15003KT 10SM CLR 27/25 A2994 RMK AO2 SLP133 T02720250


Station Type Date Time Source
KELD Decoded METAR 2020/07/15 04:53 UTC NOAA

SOUTH ARKANSAS REGIONAL, AR, United States (KELD) 33-13N 092-49W 81M
Jul 15, 2020 - 12:53 AM EDT / 2020.07.15 0453 UTC
Wind: from the SSE (150 degrees) at 3 MPH (3 KT):0
Visibility: 10 mile(s):0
Sky conditions: clear
Temperature: 81.0 F (27.2 C)
Dew Point: 77.0 F (25.0 C)
Relative Humidity: 87%
Pressure (altimeter): 29.94 in. Hg (1013 hPa)
ob: KELD 150453Z AUTO 15003KT 10SM CLR 27/25 A2994 RMK AO2 SLP133 T02720250
cycle: 5

Station Type Date Time Source
KELD TAF 2020/07/14 18:42 UTC NOAA

TAF KELD 141738Z 1418/1518 19007KT P6SM SCT150
FM150100 16003KT P6SM FEW150 FEW250
FM151500 20007KT P6SM SCT150

Example: see airport list